Time;durP1;ratioP1;P1;durP2;ratioP2;P2;SDS_P1;SDS_P2;PMS_P1;PMS_P2;Temp;Humidity;BMP_temperature;BMP_pressure;BME280_temperature;BME280_humidity;BME280_pressure;Samples;Min_cycle;Max_cycle;Signal;HPM_P1;HPM_P2
2022/04/07 00:01:07;;;;;;;7.60;1.27;;;12.10;99.90;;;;;;4974605;28;20431;-73
2022/04/07 00:03:33;;;;;;;30.80;0.82;;;12.20;99.90;;;;;;4973699;28;20410;-70
2022/04/07 00:05:58;;;;;;;4.05;2.28;;;12.20;99.90;;;;;;4974962;28;20027;-72
2022/04/07 00:08:24;;;;;;;1.23;0.75;;;12.20;99.90;;;;;;4974728;28;20081;-71
2022/04/07 00:10:50;;;;;;;0.20;0.20;;;12.20;99.90;;;;;;4974538;28;20023;-72
2022/04/07 00:13:16;;;;;;;2.55;2.03;;;12.20;99.90;;;;;;4974667;28;20077;-73
2022/04/07 00:15:43;;;;;;;5.97;2.53;;;12.20;99.90;;;;;;4974580;28;20106;-72
2022/04/07 00:18:09;;;;;;;6.88;0.85;;;12.10;99.90;;;;;;4972207;28;20026;-72
2022/04/07 00:20:34;;;;;;;0.10;0.10;;;12.20;99.90;;;;;;4973175;28;20023;-72
2022/04/07 00:23:00;;;;;;;1.67;1.38;;;12.20;99.90;;;;;;4974472;28;20031;-73
2022/04/07 00:25:26;;;;;;;1.85;0.90;;;12.30;99.90;;;;;;4974907;28;20097;-73
2022/04/07 00:27:52;;;;;;;1.00;1.00;;;12.30;99.90;;;;;;4974462;28;20073;-70
2022/04/07 00:30:20;;;;;;;1.02;0.95;;;12.30;99.90;;;;;;4974497;28;20019;-73
2022/04/07 00:32:49;;;;;;;0.55;0.55;;;12.30;99.90;;;;;;4973908;28;20027;-70
2022/04/07 00:35:16;;;;;;;3.80;2.35;;;12.30;99.90;;;;;;4974385;28;20027;-71
2022/04/07 00:37:43;;;;;;;0.22;0.22;;;12.20;99.90;;;;;;4974442;28;20113;-73
2022/04/07 00:40:10;;;;;;;9.00;2.42;;;12.20;99.90;;;;;;4972864;28;20027;-71
2022/04/07 00:42:46;;;;;;;1.40;1.30;;;12.30;99.90;;;;;;4974311;28;20042;-73
2022/04/07 00:45:13;;;;;;;3.60;2.63;;;12.30;99.90;;;;;;4974370;28;20034;-72
2022/04/07 00:47:39;;;;;;;0.52;0.52;;;12.20;99.90;;;;;;4973945;28;20031;-71
2022/04/07 00:50:05;;;;;;;0.55;0.55;;;12.20;99.90;;;;;;4973049;28;20109;-70
2022/04/07 00:52:32;;;;;;;16.80;3.25;;;12.20;99.90;;;;;;4973348;28;20081;-71
2022/04/07 00:54:58;;;;;;;0.20;0.20;;;12.20;99.90;;;;;;4973927;28;20482;-73
2022/04/07 00:57:24;;;;;;;0.43;0.43;;;12.20;99.90;;;;;;4974086;28;20023;-70
2022/04/07 00:59:50;;;;;;;2.45;1.88;;;12.30;99.90;;;;;;4973577;28;20058;-71
2022/04/07 01:02:16;;;;;;;0.95;0.95;;;12.30;99.90;;;;;;4974048;28;20074;-74
2022/04/07 01:04:41;;;;;;;1.23;0.80;;;12.30;99.90;;;;;;4973421;28;20069;-72
2022/04/07 01:07:08;;;;;;;6.80;3.50;;;12.30;99.90;;;;;;4974192;28;20034;-72
2022/04/07 01:09:34;;;;;;;18.67;2.72;;;12.30;99.90;;;;;;4974183;28;20054;-73
2022/04/07 01:12:00;;;;;;;1.50;1.00;;;12.30;99.90;;;;;;4974350;28;20019;-69
2022/04/07 01:14:26;;;;;;;2.10;1.50;;;12.30;99.90;;;;;;4973361;28;20034;-71
2022/04/07 01:16:52;;;;;;;2.72;0.90;;;12.30;99.90;;;;;;4974021;28;20434;-73
2022/04/07 01:19:18;;;;;;;6.20;1.10;;;12.30;99.90;;;;;;4973561;28;20031;-73
2022/04/07 01:21:44;;;;;;;4.10;2.10;;;12.30;99.90;;;;;;4973960;28;20030;-70
2022/04/07 01:24:12;;;;;;;3.40;1.65;;;12.30;99.90;;;;;;4974420;28;20031;-70
2022/04/07 01:26:45;;;;;;;0.10;0.10;;;12.30;99.90;;;;;;4974061;28;20023;-72
2022/04/07 01:29:16;;;;;;;1.95;1.15;;;12.30;99.90;;;;;;4973117;28;20027;-73
2022/04/07 01:31:42;;;;;;;3.10;1.15;;;12.30;99.90;;;;;;4974081;28;20053;-71
2022/04/07 01:34:12;;;;;;;17.77;1.80;;;12.30;99.90;;;;;;4973740;28;20034;-73
2022/04/07 01:36:41;;;;;;;0.85;0.85;;;12.20;99.90;;;;;;4973885;28;20019;-73
2022/04/07 01:39:07;;;;;;;5.78;4.03;;;12.20;99.90;;;;;;4972521;28;20027;-72
2022/04/07 01:41:38;;;;;;;0.40;0.40;;;12.20;99.90;;;;;;4954650;28;20602;-70
2022/04/07 01:44:05;;;;;;;0.08;0.08;;;12.20;99.90;;;;;;4954834;28;20114;-73
2022/04/07 01:46:33;;;;;;;5.15;1.88;;;12.20;99.90;;;;;;4952982;28;20534;-72
2022/04/07 01:49:01;;;;;;;7.93;2.75;;;12.20;99.90;;;;;;4968824;28;20122;-72
2022/04/07 01:51:28;;;;;;;0.00;0.00;;;12.20;99.90;;;;;;4956884;28;20031;-69
2022/04/07 01:53:54;;;;;;;6.43;2.75;;;12.20;99.90;;;;;;4976022;28;20027;-72
2022/04/07 01:56:23;;;;;;;0.68;0.68;;;12.10;99.90;;;;;;4976717;28;20051;-70
2022/04/07 01:58:49;;;;;;;1.83;1.42;;;12.10;99.90;;;;;;4976987;28;20149;-70
2022/04/07 02:01:15;;;;;;;0.00;0.00;;;12.00;99.90;;;;;;4977505;28;20075;-72
2022/04/07 02:03:42;;;;;;;0.08;0.08;;;12.00;99.90;;;;;;4976206;28;20058;-72
2022/04/07 02:06:14;;;;;;;0.52;0.52;;;11.90;99.90;;;;;;4976541;28;20387;-71
2022/04/07 02:08:40;;;;;;;3.13;1.55;;;11.90;99.90;;;;;;4976926;28;20094;-69
2022/04/07 02:11:06;;;;;;;0.75;0.75;;;11.90;99.90;;;;;;4976745;28;20027;-72
2022/04/07 02:13:38;;;;;;;0.63;0.63;;;11.90;99.90;;;;;;4976323;28;20023;-72
2022/04/07 02:16:04;;;;;;;0.95;0.95;;;11.90;99.90;;;;;;4976756;28;20019;-72
2022/04/07 02:18:30;;;;;;;0.75;0.75;;;11.90;99.90;;;;;;4976048;28;20041;-72
2022/04/07 02:20:56;;;;;;;0.57;0.57;;;11.90;99.90;;;;;;4976314;28;20030;-71
2022/04/07 02:23:22;;;;;;;0.73;0.40;;;11.90;99.90;;;;;;4976516;28;20037;-71
2022/04/07 02:25:47;;;;;;;2.92;1.85;;;11.90;99.90;;;;;;4976675;28;20042;-72
2022/04/07 02:28:13;;;;;;;3.92;1.75;;;11.90;99.90;;;;;;4975917;28;20031;-72
2022/04/07 02:30:39;;;;;;;0.05;0.05;;;11.90;99.90;;;;;;4976388;28;20105;-71
2022/04/07 02:33:04;;;;;;;1.65;1.55;;;12.00;99.90;;;;;;4976152;28;20086;-69
2022/04/07 02:35:30;;;;;;;0.98;0.55;;;12.00;99.90;;;;;;4976461;28;20372;-73
2022/04/07 02:37:59;;;;;;;5.53;3.10;;;12.10;99.90;;;;;;4975927;28;20034;-73
2022/04/07 02:40:25;;;;;;;7.32;3.72;;;12.10;99.90;;;;;;4964498;28;20035;-73
2022/04/07 02:42:51;;;;;;;2.40;2.10;;;12.10;99.90;;;;;;4957112;28;20391;-71
2022/04/07 02:45:17;;;;;;;0.10;0.10;;;12.10;99.90;;;;;;4957002;28;20456;-73
2022/04/07 02:47:43;;;;;;;1.10;1.10;;;12.10;99.90;;;;;;4956606;28;20422;-71
2022/04/07 02:50:08;;;;;;;3.50;1.52;;;12.20;99.90;;;;;;4956428;28;20023;-70
2022/04/07 02:52:34;;;;;;;0.00;0.00;;;12.20;99.90;;;;;;4964046;28;20106;-73
2022/04/07 02:55:00;;;;;;;3.13;2.05;;;12.10;99.90;;;;;;4975919;28;20390;-72
2022/04/07 02:57:30;;;;;;;1.55;0.50;;;12.10;99.90;;;;;;4975914;28;20033;-69
2022/04/07 02:59:59;;;;;;;18.83;2.85;;;12.10;99.90;;;;;;4975805;28;20045;-73
2022/04/07 03:02:26;;;;;;;2.53;2.22;;;12.10;99.90;;;;;;4974608;28;20023;-69
2022/04/07 03:04:52;;;;;;;4.65;2.72;;;12.10;99.90;;;;;;4975698;28;20029;-74
2022/04/07 03:07:18;;;;;;;1.38;0.80;;;12.10;99.90;;;;;;4975228;28;20027;-71
2022/04/07 03:09:43;;;;;;;0.25;0.25;;;12.10;99.90;;;;;;4975451;28;20498;-71
2022/04/07 03:12:10;;;;;;;4.47;2.08;;;12.10;99.90;;;;;;4975475;28;20030;-70
2022/04/07 03:14:35;;;;;;;14.18;3.05;;;12.10;99.90;;;;;;4974669;28;20019;-69
2022/04/07 03:17:02;;;;;;;3.63;2.63;;;12.10;99.90;;;;;;4976006;28;20482;-72
2022/04/07 03:19:28;;;;;;;0.20;0.20;;;12.10;99.90;;;;;;4975188;28;20053;-70
2022/04/07 03:21:53;;;;;;;0.00;0.00;;;12.10;99.90;;;;;;4975807;28;20490;-73
2022/04/07 03:24:19;;;;;;;0.85;0.43;;;12.00;99.90;;;;;;4975520;28;20054;-72
2022/04/07 03:26:45;;;;;;;0.20;0.20;;;12.00;99.90;;;;;;4975457;28;20031;-72
2022/04/07 03:29:10;;;;;;;4.57;2.47;;;12.00;99.90;;;;;;4975275;28;20035;-73
2022/04/07 03:31:36;;;;;;;0.20;0.10;;;12.10;99.90;;;;;;4975340;28;20486;-71
2022/04/07 03:34:02;;;;;;;0.10;0.10;;;12.00;99.90;;;;;;4975389;28;20545;-72
2022/04/07 03:36:28;;;;;;;0.55;0.55;;;12.00;99.90;;;;;;4975942;28;20042;-73
2022/04/07 03:38:54;;;;;;;0.00;0.00;;;12.00;99.90;;;;;;4975368;28;20031;-71
2022/04/07 03:41:19;;;;;;;0.77;0.60;;;12.00;99.90;;;;;;4956019;28;20488;-71
2022/04/07 03:43:45;;;;;;;3.08;1.98;;;12.00;99.90;;;;;;4956412;28;20450;-71
2022/04/07 03:46:11;;;;;;;1.77;1.08;;;12.00;99.90;;;;;;4955761;28;20031;-70
2022/04/07 03:48:37;;;;;;;0.45;0.45;;;12.00;99.90;;;;;;4969629;28;20031;-70
2022/04/07 03:51:03;;;;;;;0.00;0.00;;;12.00;99.90;;;;;;4955891;28;20027;-72
2022/04/07 03:53:29;;;;;;;0.10;0.10;;;12.00;99.90;;;;;;4970333;28;20066;-70
2022/04/07 03:55:55;;;;;;;1.75;0.85;;;12.00;99.90;;;;;;4974417;28;20126;-71
2022/04/07 03:58:20;;;;;;;1.45;1.27;;;12.00;99.90;;;;;;4974758;28;20058;-70
2022/04/07 04:00:46;;;;;;;5.93;3.28;;;12.00;99.90;;;;;;4973631;28;20034;-72
2022/04/07 04:03:12;;;;;;;0.25;0.25;;;12.00;99.90;;;;;;4974469;28;20399;-70
2022/04/07 04:05:37;;;;;;;1.25;0.82;;;12.00;99.90;;;;;;4974836;28;20066;-71
2022/04/07 04:08:03;;;;;;;1.65;0.52;;;12.00;99.90;;;;;;4972788;28;20038;-71
2022/04/07 04:10:29;;;;;;;1.48;1.38;;;12.00;99.90;;;;;;4974260;28;20057;-71
2022/04/07 04:12:55;;;;;;;2.53;1.67;;;12.00;99.90;;;;;;4972988;28;20027;-70
2022/04/07 04:15:21;;;;;;;1.58;1.48;;;12.00;99.90;;;;;;4972496;28;20486;-70
2022/04/07 04:17:46;;;;;;;1.75;1.10;;;11.90;99.90;;;;;;4974365;28;20038;-70
2022/04/07 04:20:12;;;;;;;0.38;0.38;;;12.00;99.90;;;;;;4974268;28;20533;-70
2022/04/07 04:22:38;;;;;;;0.22;0.22;;;11.90;99.90;;;;;;4973759;28;20039;-69
2022/04/07 04:25:05;;;;;;;7.50;2.80;;;11.90;99.90;;;;;;4974406;28;20061;-69
2022/04/07 04:27:30;;;;;;;0.88;0.88;;;11.90;99.90;;;;;;4974473;28;20038;-73
2022/04/07 04:29:56;;;;;;;0.25;0.25;;;11.90;99.90;;;;;;4974218;28;20019;-70
2022/04/07 04:32:22;;;;;;;13.60;1.88;;;11.90;99.90;;;;;;4974252;28;20406;-72
2022/04/07 04:34:48;;;;;;;13.45;3.95;;;11.90;99.90;;;;;;4973893;28;20023;-72
2022/04/07 04:37:13;;;;;;;0.73;0.68;;;11.80;99.90;;;;;;4974498;28;20023;-69
2022/04/07 04:39:39;;;;;;;6.25;3.63;;;11.80;99.90;;;;;;4968530;28;20023;-74
2022/04/07 04:42:05;;;;;;;2.30;1.65;;;11.80;99.90;;;;;;4955143;28;20051;-72
2022/04/07 04:44:31;;;;;;;1.27;1.10;;;11.80;99.90;;;;;;4955467;28;20431;-73
2022/04/07 04:46:57;;;;;;;1.45;1.35;;;11.80;99.90;;;;;;4969800;28;20399;-70
2022/04/07 04:49:23;;;;;;;4.40;2.25;;;11.90;99.90;;;;;;4969631;28;20032;-71
2022/04/07 04:51:48;;;;;;;0.75;0.52;;;11.90;99.90;;;;;;4956235;28;20051;-70
2022/04/07 04:54:15;;;;;;;2.40;2.13;;;11.90;99.90;;;;;;4974165;28;20026;-74
2022/04/07 04:56:41;;;;;;;3.92;1.75;;;12.00;99.90;;;;;;4970902;28;20107;-71
2022/04/07 04:59:07;;;;;;;1.95;1.65;;;12.00;99.90;;;;;;4973267;28;20082;-72
2022/04/07 05:01:33;;;;;;;10.73;0.90;;;12.00;99.90;;;;;;4973869;28;20031;-72
2022/04/07 05:03:59;;;;;;;2.40;1.77;;;12.00;99.90;;;;;;4973618;28;20030;-73
2022/04/07 05:06:25;;;;;;;3.17;1.65;;;12.00;99.90;;;;;;4973259;28;20114;-74
2022/04/07 05:08:50;;;;;;;0.00;0.00;;;12.00;99.90;;;;;;4972923;28;20106;-73
2022/04/07 05:11:16;;;;;;;2.30;2.08;;;12.00;99.90;;;;;;4973614;28;20482;-72
2022/04/07 05:13:45;;;;;;;2.17;1.60;;;12.00;99.90;;;;;;4973843;28;20110;-70
2022/04/07 05:16:15;;;;;;;1.85;1.73;;;11.90;99.90;;;;;;4974034;28;20022;-72
2022/04/07 05:18:46;;;;;;;5.25;1.23;;;12.00;99.90;;;;;;4971692;28;20041;-73
2022/04/07 05:21:13;;;;;;;0.10;0.10;;;12.00;99.90;;;;;;4973800;28;20027;-73
2022/04/07 05:23:39;;;;;;;8.75;1.40;;;12.00;99.90;;;;;;4973313;28;20401;-72
2022/04/07 05:26:04;;;;;;;3.03;2.20;;;12.00;99.90;;;;;;4975471;28;20033;-72
2022/04/07 05:28:30;;;;;;;0.57;0.57;;;12.00;99.90;;;;;;4977016;28;20501;-71
2022/04/07 05:30:56;;;;;;;1.08;1.08;;;12.00;99.90;;;;;;4977285;28;20023;-72
2022/04/07 05:33:22;;;;;;;2.60;1.23;;;12.00;99.90;;;;;;4976425;28;20482;-72
2022/04/07 05:35:47;;;;;;;1.85;1.75;;;11.90;99.90;;;;;;4976689;28;20027;-71
2022/04/07 05:38:13;;;;;;;0.63;0.63;;;11.90;99.90;;;;;;4976758;28;20073;-70
2022/04/07 05:40:39;;;;;;;0.57;0.57;;;11.90;99.90;;;;;;4972288;28;20038;-71
2022/04/07 05:43:05;;;;;;;7.97;4.50;;;11.90;99.90;;;;;;4957723;28;20498;-72
2022/04/07 05:45:31;;;;;;;0.10;0.10;;;12.00;99.90;;;;;;4957348;28;20081;-72
2022/04/07 05:47:57;;;;;;;0.75;0.75;;;12.00;99.90;;;;;;4983567;28;20383;-70
2022/04/07 05:50:23;;;;;;;0.32;0.32;;;12.00;99.90;;;;;;4973457;28;20033;-72
2022/04/07 05:52:49;;;;;;;0.00;0.00;;;12.00;99.90;;;;;;4974555;28;20109;-70
2022/04/07 05:55:14;;;;;;;4.80;0.38;;;12.00;99.90;;;;;;4976122;28;20046;-72
2022/04/07 05:57:40;;;;;;;0.00;0.00;;;12.00;99.90;;;;;;4974468;28;20038;-72
2022/04/07 06:00:19;;;;;;;0.98;0.85;;;12.00;99.90;;;;;;4985851;28;20454;-75
2022/04/07 06:02:47;;;;;;;0.73;0.73;;;12.00;99.90;;;;;;4980817;28;20039;-72
2022/04/07 06:05:18;;;;;;;0.30;0.30;;;12.00;99.90;;;;;;4977678;28;20094;-72
2022/04/07 06:07:44;;;;;;;0.00;0.00;;;12.00;99.90;;;;;;4972961;28;20047;-72
2022/04/07 06:10:11;;;;;;;0.13;0.13;;;11.90;99.90;;;;;;4973362;28;20023;-73
2022/04/07 06:12:38;;;;;;;14.13;2.15;;;11.90;99.90;;;;;;4976398;28;20027;-72
2022/04/07 06:15:04;;;;;;;1.77;1.52;;;11.80;99.90;;;;;;4978918;28;20457;-73
2022/04/07 06:17:34;;;;;;;0.43;0.43;;;11.80;99.90;;;;;;4976084;28;20030;-71
2022/04/07 06:20:00;;;;;;;0.65;0.63;;;11.80;99.90;;;;;;4969086;28;20382;-72
2022/04/07 06:22:26;;;;;;;1.67;1.27;;;11.80;99.90;;;;;;4978918;28;20038;-72
2022/04/07 06:24:52;;;;;;;0.20;0.20;;;11.70;99.90;;;;;;4975532;28;20094;-72
2022/04/07 06:27:17;;;;;;;5.53;1.75;;;11.80;99.90;;;;;;4975018;28;20023;-74
2022/04/07 06:29:43;;;;;;;0.60;0.60;;;11.70;99.90;;;;;;4977204;28;20600;-73
2022/04/07 06:32:08;;;;;;;5.53;2.50;;;11.70;99.90;;;;;;4972236;28;20030;-73
2022/04/07 06:34:34;;;;;;;16.08;1.20;;;11.80;99.90;;;;;;4972392;28;20034;-74
2022/04/07 06:37:00;;;;;;;2.35;0.60;;;11.80;99.90;;;;;;4952289;28;20117;-74
2022/04/07 06:39:26;;;;;;;1.55;1.17;;;11.80;99.90;;;;;;4975915;28;20609;-73
2022/04/07 06:41:52;;;;;;;1.45;1.27;;;11.70;99.90;;;;;;4976301;28;20034;-73
2022/04/07 06:44:19;;;;;;;0.70;0.38;;;11.70;99.90;;;;;;4983621;28;20107;-74
2022/04/07 06:46:45;;;;;;;2.10;1.67;;;11.70;99.90;;;;;;4976499;28;20030;-74
2022/04/07 06:49:11;;;;;;;7.45;2.40;;;11.70;99.90;;;;;;4985891;28;20086;-73
2022/04/07 06:51:37;;;;;;;0.10;0.10;;;11.80;99.90;;;;;;4982529;28;20042;-74
2022/04/07 06:54:02;;;;;;;0.80;0.40;;;11.80;99.90;;;;;;4979662;28;20034;-72
2022/04/07 06:56:28;;;;;;;0.68;0.57;;;11.80;99.90;;;;;;4975699;28;20050;-74
2022/04/07 06:58:54;;;;;;;1.38;0.60;;;11.80;99.90;;;;;;4972528;28;20023;-72
2022/04/07 07:01:20;;;;;;;6.45;3.20;;;11.80;99.90;;;;;;4971669;28;20054;-73
2022/04/07 07:03:46;;;;;;;7.43;1.80;;;11.90;99.90;;;;;;4974911;28;20125;-72
2022/04/07 07:06:11;;;;;;;14.30;5.53;;;11.90;99.90;;;;;;4975645;28;20042;-75
2022/04/07 07:08:37;;;;;;;0.00;0.00;;;11.90;99.90;;;;;;4971048;28;20046;-74
2022/04/07 07:11:03;;;;;;;1.65;1.45;;;11.90;99.90;;;;;;4972074;28;20510;-72
2022/04/07 07:13:29;;;;;;;1.70;1.63;;;11.90;99.90;;;;;;4969821;28;20031;-72
2022/04/07 07:15:55;;;;;;;0.32;0.32;;;11.90;99.90;;;;;;4967939;28;20026;-73
2022/04/07 07:18:21;;;;;;;0.28;0.20;;;11.90;99.90;;;;;;4971646;28;20031;-76
2022/04/07 07:20:47;;;;;;;4.10;1.83;;;11.90;99.90;;;;;;4964137;28;20043;-77
2022/04/07 07:23:15;;;;;;;1.75;1.63;;;11.90;99.90;;;;;;4968299;28;20062;-75
2022/04/07 07:25:40;;;;;;;13.98;1.08;;;11.90;99.90;;;;;;4974233;28;20042;-75
2022/04/07 07:28:06;;;;;;;3.22;0.80;;;11.90;99.90;;;;;;4972125;28;20038;-74
2022/04/07 07:30:32;;;;;;;1.65;0.60;;;11.90;99.90;;;;;;4976340;28;20035;-73
2022/04/07 07:32:58;;;;;;;5.57;2.50;;;11.90;99.90;;;;;;4972046;28;20084;-74
2022/04/07 07:35:24;;;;;;;1.30;0.93;;;11.90;99.90;;;;;;4977247;28;20046;-72
2022/04/07 07:37:54;;;;;;;5.68;3.50;;;11.90;99.90;;;;;;4973011;28;20030;-72
2022/04/07 07:40:22;;;;;;;3.53;2.20;;;11.90;99.90;;;;;;4977267;28;20027;-73
2022/04/07 07:42:48;;;;;;;2.85;2.35;;;11.90;99.90;;;;;;4970626;28;20074;-73
2022/04/07 07:45:15;;;;;;;0.00;0.00;;;11.90;99.90;;;;;;4986282;28;20060;-76
2022/04/07 07:47:41;;;;;;;2.60;1.98;;;11.90;99.90;;;;;;4985462;28;20022;-72
2022/04/07 07:50:07;;;;;;;2.67;1.77;;;11.90;99.90;;;;;;4971237;28;20031;-72
2022/04/07 07:52:33;;;;;;;1.55;0.63;;;11.90;99.90;;;;;;4976412;28;20092;-74
2022/04/07 07:54:59;;;;;;;0.70;0.50;;;11.90;99.90;;;;;;4974072;28;20482;-73
2022/04/07 07:57:25;;;;;;;44.40;4.68;;;11.90;99.90;;;;;;4990497;28;20034;-75
2022/04/07 07:59:51;;;;;;;3.65;2.10;;;12.00;99.90;;;;;;4990261;28;20133;-75
2022/04/07 08:02:18;;;;;;;3.58;1.15;;;12.00;99.90;;;;;;4989109;28;20165;-73
2022/04/07 08:04:44;;;;;;;0.90;0.90;;;12.00;99.90;;;;;;4982241;28;20397;-73
2022/04/07 08:07:11;;;;;;;23.05;5.65;;;12.00;99.90;;;;;;4976815;28;20517;-75
2022/04/07 08:09:36;;;;;;;1.38;0.77;;;12.00;99.90;;;;;;4974467;28;20407;-77
2022/04/07 08:12:02;;;;;;;0.65;0.63;;;12.00;99.90;;;;;;4985227;28;20034;-74
2022/04/07 08:14:29;;;;;;;6.97;4.13;;;12.00;99.90;;;;;;4987837;28;20021;-74
2022/04/07 08:16:55;;;;;;;17.98;1.73;;;12.10;99.90;;;;;;4974457;28;20154;-75
2022/04/07 08:19:20;;;;;;;16.08;1.77;;;12.00;99.90;;;;;;4955790;28;20037;-75
2022/04/07 08:21:47;;;;;;;7.60;3.15;;;12.00;99.90;;;;;;4956387;28;20069;-75
2022/04/07 08:24:12;;;;;;;0.40;0.40;;;12.00;99.90;;;;;;4942828;28;20329;-76
2022/04/07 08:26:38;;;;;;;0.20;0.20;;;12.00;99.90;;;;;;4959341;28;20035;-72
2022/04/07 08:29:04;;;;;;;1.45;1.35;;;12.00;99.90;;;;;;4944343;28;20031;-73
2022/04/07 08:31:29;;;;;;;8.32;1.25;;;12.00;99.90;;;;;;4967705;28;20066;-76
2022/04/07 08:33:55;;;;;;;0.63;0.60;;;12.00;99.90;;;;;;4964383;28;20575;-75
2022/04/07 08:36:20;;;;;;;0.08;0.08;;;12.00;99.90;;;;;;4969113;28;20034;-75
2022/04/07 08:38:46;;;;;;;2.00;0.45;;;12.00;99.90;;;;;;4981696;28;20114;-73
2022/04/07 08:41:12;;;;;;;13.15;3.20;;;12.10;99.90;;;;;;4978579;28;20049;-72
2022/04/07 08:43:42;;;;;;;4.45;1.45;;;12.10;99.90;;;;;;4977409;28;20034;-74
2022/04/07 08:46:09;;;;;;;1.30;0.85;;;12.10;99.90;;;;;;4974177;28;20030;-70
2022/04/07 08:48:38;;;;;;;3.13;1.90;;;12.10;99.90;;;;;;4977906;28;20154;-69
2022/04/07 08:51:05;;;;;;;1.75;1.38;;;12.10;99.90;;;;;;4977657;28;20114;-72
2022/04/07 08:53:32;;;;;;;1.02;1.02;;;12.10;99.90;;;;;;4979064;28;20098;-70
2022/04/07 08:56:01;;;;;;;4.38;0.77;;;12.20;99.90;;;;;;4988173;28;20043;-73
2022/04/07 08:58:26;;;;;;;9.10;1.45;;;12.20;99.90;;;;;;4971926;28;20041;-75
2022/04/07 09:00:52;;;;;;;12.30;1.75;;;12.20;99.90;;;;;;4975246;28;20251;-70
2022/04/07 09:03:18;;;;;;;3.58;2.10;;;12.20;99.90;;;;;;4975982;28;20440;-75
2022/04/07 09:05:58;;;;;;;3.13;1.27;;;12.30;99.90;;;;;;4977695;28;20023;-72
2022/04/07 09:08:35;;;;;;;0.70;0.70;;;12.20;99.90;;;;;;4973652;28;20043;-71
2022/04/07 09:11:02;;;;;;;0.00;0.00;;;12.30;99.90;;;;;;4987423;28;20027;-75
2022/04/07 09:13:39;;;;;;;18.63;3.55;;;12.30;99.90;;;;;;4987086;28;20405;-77
2022/04/07 09:16:07;;;;;;;0.65;0.65;;;12.30;99.90;;;;;;4980340;28;20027;-76
2022/04/07 09:18:37;;;;;;;0.85;0.85;;;12.30;99.90;;;;;;4982477;28;20050;-71
2022/04/07 09:21:04;;;;;;;2.92;2.05;;;12.30;99.90;;;;;;4977366;28;20031;-72
2022/04/07 09:23:40;;;;;;;0.20;0.20;;;12.30;99.90;;;;;;4973550;28;20030;-72
2022/04/07 09:26:10;;;;;;;4.35;1.83;;;12.30;99.90;;;;;;4978128;28;20031;-76
2022/04/07 09:28:36;;;;;;;1.00;0.75;;;12.30;99.90;;;;;;4972759;28;20049;-73
2022/04/07 09:31:02;;;;;;;4.60;3.42;;;12.30;99.90;;;;;;4976742;28;20102;-77
2022/04/07 09:33:29;;;;;;;5.72;1.35;;;12.30;99.90;;;;;;4978592;28;20031;-72
2022/04/07 09:35:59;;;;;;;0.80;0.80;;;12.30;99.90;;;;;;4972235;28;20030;-72
2022/04/07 09:38:25;;;;;;;4.38;0.95;;;12.30;99.90;;;;;;4972481;28;20042;-77
2022/04/07 09:40:51;;;;;;;2.38;1.45;;;12.30;99.90;;;;;;4978109;28;20034;-76
2022/04/07 09:43:18;;;;;;;0.03;0.03;;;12.30;99.90;;;;;;4973946;28;20035;-73
2022/04/07 09:45:47;;;;;;;1.92;1.83;;;12.30;99.90;;;;;;4969060;28;20410;-73
2022/04/07 09:48:19;;;;;;;0.10;0.10;;;12.30;99.90;;;;;;4972060;28;20069;-74
2022/04/07 09:51:02;;;;;;;4.30;2.50;;;12.30;99.90;;;;;;4973538;28;20189;-73
2022/04/07 09:53:36;;;;;;;1.88;1.20;;;12.30;99.90;;;;;;4990195;28;20034;-74
2022/04/07 09:56:02;;;;;;;0.77;0.45;;;12.30;99.90;;;;;;4976135;28;20157;-78
2022/04/07 09:58:28;;;;;;;0.10;0.10;;;12.30;99.90;;;;;;4974538;28;20125;-74
2022/04/07 10:00:56;;;;;;;0.40;0.40;;;12.40;99.90;;;;;;4973988;28;20047;-74
2022/04/07 10:03:22;;;;;;;0.10;0.10;;;12.40;99.90;;;;;;4977055;28;20045;-77
2022/04/07 10:05:48;;;;;;;8.93;1.13;;;12.30;99.90;;;;;;4977211;28;20042;-80
2022/04/07 10:08:16;;;;;;;1.45;1.35;;;12.30;99.90;;;;;;4975184;28;20031;-77
2022/04/07 10:10:42;;;;;;;9.32;0.57;;;12.30;99.90;;;;;;4974632;28;20050;-77
2022/04/07 10:13:09;;;;;;;0.15;0.15;;;12.30;99.90;;;;;;4965930;28;20042;-78
2022/04/07 10:15:38;;;;;;;3.55;1.88;;;12.30;99.90;;;;;;4971230;28;20034;-78
2022/04/07 10:18:14;;;;;;;16.40;2.78;;;12.30;99.90;;;;;;4966145;28;20035;-75
2022/04/07 10:20:47;;;;;;;1.23;1.17;;;12.30;99.90;;;;;;4951956;28;20397;-78
2022/04/07 10:23:28;;;;;;;2.15;1.58;;;12.30;99.90;;;;;;4962236;28;20038;-79
2022/04/07 10:25:56;;;;;;;0.22;0.22;;;12.30;99.90;;;;;;4962320;28;20026;-71
2022/04/07 10:28:25;;;;;;;0.20;0.20;;;12.30;99.90;;;;;;4959970;28;20035;-77
2022/04/07 10:30:53;;;;;;;0.22;0.22;;;12.30;99.90;;;;;;4964172;28;20430;-74
2022/04/07 10:33:40;;;;;;;0.52;0.52;;;12.30;99.90;;;;;;4953710;28;20038;-77
2022/04/07 10:36:30;;;;;;;0.88;0.88;;;12.30;99.90;;;;;;4954293;28;20038;-74
2022/04/07 10:38:57;;;;;;;4.13;0.30;;;12.30;99.90;;;;;;4953906;28;20581;-76
2022/04/07 10:41:37;;;;;;;0.38;0.35;;;12.30;99.90;;;;;;4956349;28;20121;-73
2022/04/07 10:44:11;;;;;;;1.55;0.47;;;12.30;99.90;;;;;;4948864;28;20039;-75
2022/04/07 10:46:36;;;;;;;0.00;0.00;;;12.30;99.90;;;;;;4959660;28;20042;-76
2022/04/07 10:49:18;;;;;;;0.00;0.00;;;12.40;99.90;;;;;;4960766;28;20034;-75
2022/04/07 10:51:46;;;;;;;0.30;0.30;;;12.40;99.90;;;;;;4958048;28;20022;-75
2022/04/07 10:54:12;;;;;;;11.35;0.73;;;12.50;99.90;;;;;;4957342;28;20039;-77
2022/04/07 10:56:41;;;;;;;0.40;0.40;;;12.50;99.90;;;;;;4950559;28;20042;-75
2022/04/07 10:59:28;;;;;;;0.20;0.20;;;12.50;99.90;;;;;;4963832;28;20030;-77
2022/04/07 11:02:02;;;;;;;1.00;0.45;;;12.50;99.90;;;;;;4953805;28;20053;-78
2022/04/07 11:04:27;;;;;;;1.55;1.45;;;12.50;99.90;;;;;;4987941;28;20097;-72
2022/04/07 11:07:05;;;;;;;0.00;0.00;;;12.50;99.90;;;;;;4949675;28;20031;-75
2022/04/07 11:09:44;;;;;;;0.20;0.20;;;12.50;99.90;;;;;;4957680;28;20042;-76
2022/04/07 11:12:15;;;;;;;12.73;1.40;;;12.50;99.90;;;;;;4959200;28;20050;-79
2022/04/07 11:14:46;;;;;;;38.10;1.27;;;12.50;99.90;;;;;;4955731;28;20197;-78
2022/04/07 11:17:28;;;;;;;0.32;0.15;;;12.50;99.90;;;;;;4972234;28;20030;-74
2022/04/07 11:20:09;;;;;;;1.63;1.27;;;12.40;99.90;;;;;;4970272;28;20063;-73
2022/04/07 11:22:45;;;;;;;2.13;0.30;;;12.50;99.90;;;;;;4984854;28;20039;-74
2022/04/07 11:25:13;;;;;;;0.50;0.50;;;12.50;99.90;;;;;;4968333;28;20038;-73
2022/04/07 11:27:42;;;;;;;9.05;2.25;;;12.40;99.90;;;;;;4985340;28;20023;-77
2022/04/07 11:30:09;;;;;;;1.13;1.08;;;12.40;99.90;;;;;;4970967;28;20026;-74
2022/04/07 11:32:36;;;;;;;0.00;0.00;;;12.40;99.90;;;;;;4969428;28;20053;-76
2022/04/07 11:35:15;;;;;;;15.13;3.03;;;12.40;99.90;;;;;;4974494;28;20042;-77
2022/04/07 11:37:42;;;;;;;1.45;1.25;;;12.50;99.90;;;;;;4970680;28;20054;-77
2022/04/07 11:40:09;;;;;;;2.75;0.82;;;12.50;99.90;;;;;;4967856;28;20396;-74
2022/04/07 11:42:35;;;;;;;0.10;0.10;;;12.50;99.90;;;;;;4969478;28;20031;-71
2022/04/07 11:45:08;;;;;;;0.57;0.57;;;12.60;99.90;;;;;;5117002;27;20384;-72
2022/04/07 11:47:37;;;;;;;0.35;0.35;;;12.60;99.90;;;;;;5120837;28;20068;-74
2022/04/07 11:50:07;;;;;;;1.08;1.00;;;12.60;99.90;;;;;;5117907;28;20486;-72
2022/04/07 11:52:35;;;;;;;6.18;2.20;;;12.60;99.90;;;;;;5115403;28;20024;-81
2022/04/07 11:55:04;;;;;;;2.83;0.40;;;12.70;99.90;;;;;;5111025;28;20679;-72
2022/04/07 11:57:31;;;;;;;1.75;1.65;;;12.70;99.90;;;;;;5112525;28;20035;-75
2022/04/07 11:59:58;;;;;;;0.00;0.00;;;12.70;99.90;;;;;;5102744;28;20469;-77
2022/04/07 12:02:24;;;;;;;0.73;0.73;;;12.70;99.90;;;;;;5115002;28;20048;-73
2022/04/07 12:04:58;;;;;;;1.85;1.45;;;12.80;99.90;;;;;;5106073;28;20388;-71
2022/04/07 12:07:24;;;;;;;11.02;0.75;;;12.70;99.90;;;;;;5117162;28;20525;-75
2022/04/07 12:09:50;;;;;;;2.13;1.77;;;12.60;99.90;;;;;;5108265;28;20028;-72
2022/04/07 12:12:17;;;;;;;0.63;0.63;;;12.60;99.90;;;;;;5103169;28;20159;-76
2022/04/07 12:14:43;;;;;;;0.08;0.08;;;12.60;99.90;;;;;;5112740;28;20402;-74
2022/04/07 12:17:09;;;;;;;0.28;0.28;;;12.70;99.90;;;;;;5113109;28;20025;-74
2022/04/07 12:19:45;;;;;;;28.40;1.95;;;12.70;99.90;;;;;;5110616;27;20038;-75
2022/04/07 12:22:13;;;;;;;1.02;0.43;;;12.70;99.90;;;;;;5114159;28;20048;-74
2022/04/07 12:24:39;;;;;;;7.68;1.08;;;12.70;99.90;;;;;;5106094;28;20034;-72
2022/04/07 12:27:08;;;;;;;1.35;1.25;;;12.70;99.90;;;;;;5110664;28;20024;-75
2022/04/07 12:29:34;;;;;;;7.47;3.30;;;12.80;99.90;;;;;;5102756;28;20394;-75
2022/04/07 12:32:03;;;;;;;3.97;1.73;;;12.70;99.90;;;;;;5114549;28;20024;-74
2022/04/07 12:34:30;;;;;;;0.00;0.00;;;12.70;99.90;;;;;;5105758;28;20052;-73
2022/04/07 12:36:56;;;;;;;0.08;0.08;;;12.70;99.90;;;;;;5107185;28;20020;-71
2022/04/07 12:39:26;;;;;;;1.52;1.42;;;12.70;99.90;;;;;;5107399;28;20032;-75
2022/04/07 12:41:53;;;;;;;0.82;0.15;;;12.70;99.90;;;;;;5112116;28;20438;-75
2022/04/07 12:44:22;;;;;;;2.17;0.65;;;12.80;99.90;;;;;;5106804;28;20051;-74
2022/04/07 12:46:54;;;;;;;0.20;0.13;;;12.80;99.90;;;;;;5108290;27;20020;-73